Pagrindinis puslapis
METAR-TAF:

METAR-TAF

Oro uostai :

Albert, Prancūzija

platuma: 49-58-21N, ilguma: 002-41-29E, Aukštis: 111 m

Dabartinis oras

Ataskaita buvo paskelbta 20 minutes, ne 06:00 UTC
Vėjas 7 kt iš Vakarų/Šiaurės Vakarų
Temperatūra 18°C
Drėgmė 94%
Slėgis 1011 hPa
Matomumas: 4000 m
rūkana

METAR: LFAQ 200600Z AUTO 29007KT 4000 BR NSC 18/17 Q1011 BECMG 9999 NSW

Laikas: 08:20 (06:20 UTC)

Prognozė

Ataskaita buvo paskelbta 1 valandą ir 20 minutes, ne 05:00 UTC
Prognozė galioja nuo 20 metu 06 UTC su 20 metu 15 UTC
Vėjas 8 kt iš Vakarų/Šiaurės Vakarų
Matomumas 10 km arba daugiau
nėra debesų žemiau 1500 m ir nėra kamuolinių lietaus debesų
Tikimybė 40% :
Laikinai
nuo 20 metu 06 UTC su 20 metu 07 UTC
Matomumas: 4000 m
rūkana,

TAF: LFAQ 200500Z 2006/2015 29008KT CAVOK PROB40 TEMPO 2006/2007 4000 BR

Orai ataskaitas ir orų prognozės (METAR, TAF).

turimą stotys yra geltonos ir raudonos taškus žemėlapyje.

Perkelti pele per norėdami pamatyti stoties vardą.

Tada spustelėkite, norėdami matyti oro stebėjimo ir prognozės.

Norėdami pakeisti žemėlapį: spustelėkite ant žalios mygtukų su juodo kryžiaus žemyn,; žalią mygtuką su brūkšneliu, jei norite nutolinti; arba žalių rodyklių gretimoms žemėlapius.


METAR-TAF: